sensor_id;sensor_type;location;lat;lon;timestamp;P1;durP1;ratioP1;P2;durP2;ratioP2
55409;SDS011;41279;43.546;16.426;2022-10-16T00:02:19;34.22;;;19.55;;
55409;SDS011;41279;43.546;16.426;2022-10-16T00:04:45;32.78;;;19.48;;
55409;SDS011;41279;43.546;16.426;2022-10-16T00:07:10;32.08;;;20.00;;
55409;SDS011;41279;43.546;16.426;2022-10-16T00:09:35;34.08;;;20.17;;
55409;SDS011;41279;43.546;16.426;2022-10-16T00:12:01;37.50;;;19.65;;
55409;SDS011;41279;43.546;16.426;2022-10-16T00:14:26;32.58;;;17.48;;
55409;SDS011;41279;43.546;16.426;2022-10-16T00:16:51;35.97;;;19.63;;
55409;SDS011;41279;43.546;16.426;2022-10-16T00:19:17;36.90;;;19.75;;
55409;SDS011;41279;43.546;16.426;2022-10-16T00:21:42;32.17;;;18.33;;
55409;SDS011;41279;43.546;16.426;2022-10-16T00:24:08;31.63;;;19.33;;
55409;SDS011;41279;43.546;16.426;2022-10-16T00:26:35;32.03;;;18.30;;
55409;SDS011;41279;43.546;16.426;2022-10-16T00:29:01;35.63;;;18.50;;
55409;SDS011;41279;43.546;16.426;2022-10-16T00:31:27;34.45;;;17.90;;
55409;SDS011;41279;43.546;16.426;2022-10-16T00:33:53;34.88;;;18.50;;
55409;SDS011;41279;43.546;16.426;2022-10-16T00:36:20;32.30;;;19.08;;
55409;SDS011;41279;43.546;16.426;2022-10-16T00:38:47;36.10;;;19.85;;
55409;SDS011;41279;43.546;16.426;2022-10-16T00:41:18;34.63;;;18.77;;
55409;SDS011;41279;43.546;16.426;2022-10-16T00:43:49;36.05;;;19.63;;
55409;SDS011;41279;43.546;16.426;2022-10-16T00:46:23;34.72;;;19.15;;
55409;SDS011;41279;43.546;16.426;2022-10-16T00:49:02;36.20;;;19.73;;
55409;SDS011;41279;43.546;16.426;2022-10-16T00:51:33;34.53;;;19.05;;
55409;SDS011;41279;43.546;16.426;2022-10-16T00:54:04;34.90;;;19.83;;
55409;SDS011;41279;43.546;16.426;2022-10-16T00:56:33;33.72;;;19.98;;
55409;SDS011;41279;43.546;16.426;2022-10-16T00:58:59;34.72;;;20.42;;
55409;SDS011;41279;43.546;16.426;2022-10-16T01:01:28;38.53;;;20.77;;
55409;SDS011;41279;43.546;16.426;2022-10-16T01:03:54;38.00;;;22.02;;
55409;SDS011;41279;43.546;16.426;2022-10-16T01:06:23;36.65;;;20.42;;
55409;SDS011;41279;43.546;16.426;2022-10-16T01:08:58;38.17;;;21.25;;
55409;SDS011;41279;43.546;16.426;2022-10-16T01:11:33;38.00;;;21.20;;
55409;SDS011;41279;43.546;16.426;2022-10-16T01:14:10;39.38;;;21.23;;
55409;SDS011;41279;43.546;16.426;2022-10-16T01:16:47;40.55;;;21.48;;
55409;SDS011;41279;43.546;16.426;2022-10-16T01:19:17;37.03;;;21.45;;
55409;SDS011;41279;43.546;16.426;2022-10-16T01:21:55;40.33;;;21.88;;
55409;SDS011;41279;43.546;16.426;2022-10-16T01:34:48;36.88;;;20.80;;
55409;SDS011;41279;43.546;16.426;2022-10-16T01:37:36;42.15;;;21.50;;
55409;SDS011;41279;43.546;16.426;2022-10-16T01:40:07;40.05;;;20.38;;
55409;SDS011;41279;43.546;16.426;2022-10-16T01:42:37;37.78;;;21.60;;
55409;SDS011;41279;43.546;16.426;2022-10-16T01:45:08;36.95;;;20.77;;
55409;SDS011;41279;43.546;16.426;2022-10-16T01:47:38;41.05;;;20.80;;
55409;SDS011;41279;43.546;16.426;2022-10-16T01:50:04;33.80;;;19.15;;
55409;SDS011;41279;43.546;16.426;2022-10-16T01:52:32;31.83;;;18.63;;
55409;SDS011;41279;43.546;16.426;2022-10-16T01:55:03;35.97;;;19.35;;
55409;SDS011;41279;43.546;16.426;2022-10-16T01:57:31;33.67;;;19.30;;
55409;SDS011;41279;43.546;16.426;2022-10-16T02:00:00;31.83;;;18.70;;
55409;SDS011;41279;43.546;16.426;2022-10-16T02:02:35;33.33;;;18.95;;
55409;SDS011;41279;43.546;16.426;2022-10-16T02:05:25;37.80;;;20.10;;
55409;SDS011;41279;43.546;16.426;2022-10-16T02:07:55;33.83;;;18.38;;
55409;SDS011;41279;43.546;16.426;2022-10-16T02:10:21;36.90;;;19.27;;
55409;SDS011;41279;43.546;16.426;2022-10-16T02:12:54;36.72;;;20.30;;
55409;SDS011;41279;43.546;16.426;2022-10-16T02:15:35;39.47;;;20.67;;
55409;SDS011;41279;43.546;16.426;2022-10-16T02:18:02;40.53;;;21.13;;
55409;SDS011;41279;43.546;16.426;2022-10-16T02:20:34;40.78;;;21.33;;
55409;SDS011;41279;43.546;16.426;2022-10-16T02:23:08;36.92;;;20.42;;
55409;SDS011;41279;43.546;16.426;2022-10-16T02:25:42;33.53;;;20.13;;
55409;SDS011;41279;43.546;16.426;2022-10-16T02:28:17;37.10;;;20.05;;
55409;SDS011;41279;43.546;16.426;2022-10-16T02:33:21;33.22;;;18.63;;
55409;SDS011;41279;43.546;16.426;2022-10-16T02:35:49;36.10;;;18.83;;
55409;SDS011;41279;43.546;16.426;2022-10-16T02:38:16;36.45;;;19.42;;
55409;SDS011;41279;43.546;16.426;2022-10-16T02:40:42;33.63;;;19.08;;
55409;SDS011;41279;43.546;16.426;2022-10-16T02:43:09;37.38;;;19.20;;
55409;SDS011;41279;43.546;16.426;2022-10-16T02:45:34;39.15;;;19.75;;
55409;SDS011;41279;43.546;16.426;2022-10-16T02:48:00;34.00;;;19.02;;
55409;SDS011;41279;43.546;16.426;2022-10-16T02:50:25;36.53;;;19.98;;
55409;SDS011;41279;43.546;16.426;2022-10-16T02:52:50;38.25;;;20.00;;
55409;SDS011;41279;43.546;16.426;2022-10-16T02:55:16;32.42;;;19.23;;
55409;SDS011;41279;43.546;16.426;2022-10-16T02:57:41;38.17;;;20.52;;
55409;SDS011;41279;43.546;16.426;2022-10-16T03:00:08;36.25;;;20.52;;
55409;SDS011;41279;43.546;16.426;2022-10-16T03:02:36;35.75;;;19.55;;
55409;SDS011;41279;43.546;16.426;2022-10-16T03:05:01;36.42;;;19.95;;
55409;SDS011;41279;43.546;16.426;2022-10-16T03:07:27;36.33;;;20.30;;
55409;SDS011;41279;43.546;16.426;2022-10-16T03:09:53;37.10;;;20.20;;
55409;SDS011;41279;43.546;16.426;2022-10-16T03:12:19;38.63;;;20.08;;
55409;SDS011;41279;43.546;16.426;2022-10-16T03:14:44;42.78;;;20.65;;
55409;SDS011;41279;43.546;16.426;2022-10-16T03:17:10;39.30;;;21.52;;
55409;SDS011;41279;43.546;16.426;2022-10-16T03:19:35;39.55;;;21.67;;
55409;SDS011;41279;43.546;16.426;2022-10-16T03:22:01;39.88;;;21.17;;
55409;SDS011;41279;43.546;16.426;2022-10-16T03:24:26;37.30;;;20.50;;
55409;SDS011;41279;43.546;16.426;2022-10-16T03:26:52;31.55;;;18.35;;
55409;SDS011;41279;43.546;16.426;2022-10-16T03:29:17;39.15;;;19.73;;
55409;SDS011;41279;43.546;16.426;2022-10-16T03:31:42;37.65;;;20.08;;
55409;SDS011;41279;43.546;16.426;2022-10-16T03:34:08;35.72;;;19.42;;
55409;SDS011;41279;43.546;16.426;2022-10-16T03:36:33;36.40;;;20.52;;
55409;SDS011;41279;43.546;16.426;2022-10-16T03:38:58;41.22;;;20.58;;
55409;SDS011;41279;43.546;16.426;2022-10-16T03:41:24;38.28;;;22.25;;
55409;SDS011;41279;43.546;16.426;2022-10-16T03:43:49;37.10;;;21.05;;
55409;SDS011;41279;43.546;16.426;2022-10-16T03:46:14;37.47;;;21.27;;
55409;SDS011;41279;43.546;16.426;2022-10-16T03:48:40;36.15;;;20.65;;
55409;SDS011;41279;43.546;16.426;2022-10-16T03:51:05;37.33;;;20.05;;
55409;SDS011;41279;43.546;16.426;2022-10-16T03:53:31;39.83;;;20.35;;
55409;SDS011;41279;43.546;16.426;2022-10-16T03:55:56;38.00;;;21.05;;
55409;SDS011;41279;43.546;16.426;2022-10-16T03:58:21;45.53;;;22.67;;
55409;SDS011;41279;43.546;16.426;2022-10-16T04:00:47;39.55;;;22.73;;
55409;SDS011;41279;43.546;16.426;2022-10-16T04:03:13;42.38;;;20.67;;
55409;SDS011;41279;43.546;16.426;2022-10-16T04:05:39;42.85;;;21.67;;
55409;SDS011;41279;43.546;16.426;2022-10-16T04:08:04;43.10;;;22.00;;
55409;SDS011;41279;43.546;16.426;2022-10-16T04:10:30;42.25;;;21.17;;
55409;SDS011;41279;43.546;16.426;2022-10-16T04:12:55;41.42;;;20.92;;
55409;SDS011;41279;43.546;16.426;2022-10-16T04:15:21;39.17;;;21.25;;
55409;SDS011;41279;43.546;16.426;2022-10-16T04:17:48;36.35;;;19.88;;
55409;SDS011;41279;43.546;16.426;2022-10-16T04:20:13;42.28;;;21.75;;
55409;SDS011;41279;43.546;16.426;2022-10-16T04:22:38;42.08;;;22.80;;
55409;SDS011;41279;43.546;16.426;2022-10-16T04:25:04;41.88;;;20.50;;
55409;SDS011;41279;43.546;16.426;2022-10-16T04:27:30;39.15;;;21.10;;
55409;SDS011;41279;43.546;16.426;2022-10-16T04:29:56;41.35;;;21.42;;
55409;SDS011;41279;43.546;16.426;2022-10-16T04:32:22;42.17;;;22.00;;
55409;SDS011;41279;43.546;16.426;2022-10-16T04:34:47;44.63;;;21.52;;
55409;SDS011;41279;43.546;16.426;2022-10-16T04:37:13;39.95;;;21.60;;
55409;SDS011;41279;43.546;16.426;2022-10-16T04:39:38;39.20;;;20.20;;
55409;SDS011;41279;43.546;16.426;2022-10-16T04:42:03;37.65;;;21.20;;
55409;SDS011;41279;43.546;16.426;2022-10-16T04:44:29;44.92;;;23.27;;
55409;SDS011;41279;43.546;16.426;2022-10-16T04:46:54;43.65;;;22.05;;
55409;SDS011;41279;43.546;16.426;2022-10-16T04:49:20;40.00;;;21.83;;
55409;SDS011;41279;43.546;16.426;2022-10-16T04:51:45;39.55;;;20.75;;
55409;SDS011;41279;43.546;16.426;2022-10-16T04:54:10;43.40;;;21.73;;
55409;SDS011;41279;43.546;16.426;2022-10-16T04:56:36;40.78;;;22.10;;
55409;SDS011;41279;43.546;16.426;2022-10-16T04:59:08;38.40;;;20.80;;
55409;SDS011;41279;43.546;16.426;2022-10-16T05:01:34;39.13;;;21.05;;
55409;SDS011;41279;43.546;16.426;2022-10-16T05:03:59;48.47;;;26.55;;
55409;SDS011;41279;43.546;16.426;2022-10-16T05:06:24;44.92;;;23.75;;
55409;SDS011;41279;43.546;16.426;2022-10-16T05:08:50;43.80;;;21.65;;
55409;SDS011;41279;43.546;16.426;2022-10-16T05:11:15;43.55;;;21.77;;
55409;SDS011;41279;43.546;16.426;2022-10-16T05:13:41;46.00;;;21.88;;
55409;SDS011;41279;43.546;16.426;2022-10-16T05:16:06;44.75;;;21.83;;
55409;SDS011;41279;43.546;16.426;2022-10-16T05:18:32;43.15;;;22.30;;
55409;SDS011;41279;43.546;16.426;2022-10-16T05:20:57;37.72;;;20.77;;
55409;SDS011;41279;43.546;16.426;2022-10-16T05:23:22;37.47;;;21.20;;
55409;SDS011;41279;43.546;16.426;2022-10-16T05:25:54;38.78;;;21.40;;
55409;SDS011;41279;43.546;16.426;2022-10-16T05:28:23;37.70;;;21.30;;
55409;SDS011;41279;43.546;16.426;2022-10-16T05:30:49;36.63;;;20.67;;
55409;SDS011;41279;43.546;16.426;2022-10-16T05:33:15;39.15;;;19.92;;
55409;SDS011;41279;43.546;16.426;2022-10-16T05:35:40;35.58;;;20.67;;
55409;SDS011;41279;43.546;16.426;2022-10-16T05:38:06;35.85;;;20.05;;
55409;SDS011;41279;43.546;16.426;2022-10-16T05:40:31;31.48;;;18.85;;
55409;SDS011;41279;43.546;16.426;2022-10-16T05:42:56;31.88;;;18.70;;
55409;SDS011;41279;43.546;16.426;2022-10-16T05:45:22;30.70;;;17.80;;
55409;SDS011;41279;43.546;16.426;2022-10-16T05:47:47;33.58;;;17.95;;
55409;SDS011;41279;43.546;16.426;2022-10-16T05:50:13;28.55;;;16.63;;
55409;SDS011;41279;43.546;16.426;2022-10-16T05:52:39;27.35;;;16.85;;
55409;SDS011;41279;43.546;16.426;2022-10-16T05:55:04;26.02;;;16.27;;
55409;SDS011;41279;43.546;16.426;2022-10-16T05:57:30;26.67;;;15.88;;
55409;SDS011;41279;43.546;16.426;2022-10-16T05:59:55;25.25;;;15.77;;
55409;SDS011;41279;43.546;16.426;2022-10-16T06:02:21;26.60;;;15.60;;
55409;SDS011;41279;43.546;16.426;2022-10-16T06:04:46;29.48;;;16.88;;
55409;SDS011;41279;43.546;16.426;2022-10-16T06:07:11;28.50;;;16.02;;
55409;SDS011;41279;43.546;16.426;2022-10-16T06:09:37;26.60;;;16.40;;
55409;SDS011;41279;43.546;16.426;2022-10-16T06:12:02;25.40;;;14.85;;
55409;SDS011;41279;43.546;16.426;2022-10-16T06:14:28;26.27;;;15.93;;
55409;SDS011;41279;43.546;16.426;2022-10-16T06:16:53;24.50;;;15.65;;
55409;SDS011;41279;43.546;16.426;2022-10-16T06:19:18;22.85;;;14.48;;
55409;SDS011;41279;43.546;16.426;2022-10-16T06:21:44;24.52;;;15.60;;
55409;SDS011;41279;43.546;16.426;2022-10-16T06:24:10;24.95;;;15.00;;
55409;SDS011;41279;43.546;16.426;2022-10-16T06:26:35;28.48;;;15.63;;
55409;SDS011;41279;43.546;16.426;2022-10-16T06:29:02;22.02;;;15.50;;
55409;SDS011;41279;43.546;16.426;2022-10-16T06:31:27;24.65;;;15.38;;
55409;SDS011;41279;43.546;16.426;2022-10-16T06:33:56;27.63;;;16.40;;
55409;SDS011;41279;43.546;16.426;2022-10-16T06:36:22;33.53;;;16.35;;
55409;SDS011;41279;43.546;16.426;2022-10-16T06:38:48;28.60;;;15.77;;
55409;SDS011;41279;43.546;16.426;2022-10-16T06:41:17;29.58;;;16.33;;
55409;SDS011;41279;43.546;16.426;2022-10-16T06:43:44;31.77;;;15.98;;
55409;SDS011;41279;43.546;16.426;2022-10-16T06:46:10;25.40;;;15.43;;
55409;SDS011;41279;43.546;16.426;2022-10-16T06:48:37;28.48;;;16.48;;
55409;SDS011;41279;43.546;16.426;2022-10-16T06:51:04;25.63;;;14.52;;
55409;SDS011;41279;43.546;16.426;2022-10-16T06:53:36;27.03;;;14.10;;
55409;SDS011;41279;43.546;16.426;2022-10-16T06:56:07;25.75;;;14.70;;
55409;SDS011;41279;43.546;16.426;2022-10-16T06:58:37;18.70;;;13.23;;
55409;SDS011;41279;43.546;16.426;2022-10-16T07:01:03;19.10;;;13.48;;
55409;SDS011;41279;43.546;16.426;2022-10-16T07:03:29;20.15;;;13.10;;
55409;SDS011;41279;43.546;16.426;2022-10-16T07:06:01;21.33;;;14.55;;
55409;SDS011;41279;43.546;16.426;2022-10-16T07:08:30;19.50;;;13.32;;
55409;SDS011;41279;43.546;16.426;2022-10-16T07:10:58;19.92;;;13.25;;
55409;SDS011;41279;43.546;16.426;2022-10-16T07:13:32;20.75;;;13.95;;
55409;SDS011;41279;43.546;16.426;2022-10-16T07:16:03;18.70;;;13.70;;
55409;SDS011;41279;43.546;16.426;2022-10-16T07:18:30;19.70;;;13.23;;
55409;SDS011;41279;43.546;16.426;2022-10-16T07:21:02;21.73;;;13.95;;
55409;SDS011;41279;43.546;16.426;2022-10-16T07:23:29;20.15;;;13.57;;
55409;SDS011;41279;43.546;16.426;2022-10-16T07:25:54;20.55;;;13.40;;
55409;SDS011;41279;43.546;16.426;2022-10-16T07:28:20;20.40;;;14.02;;
55409;SDS011;41279;43.546;16.426;2022-10-16T07:30:46;20.35;;;13.35;;
55409;SDS011;41279;43.546;16.426;2022-10-16T07:33:11;20.65;;;13.55;;
55409;SDS011;41279;43.546;16.426;2022-10-16T07:35:36;20.73;;;13.18;;
55409;SDS011;41279;43.546;16.426;2022-10-16T07:38:02;17.92;;;12.98;;
55409;SDS011;41279;43.546;16.426;2022-10-16T07:40:27;19.33;;;13.73;;
55409;SDS011;41279;43.546;16.426;2022-10-16T07:42:52;20.92;;;13.85;;
55409;SDS011;41279;43.546;16.426;2022-10-16T07:45:18;20.10;;;13.45;;
55409;SDS011;41279;43.546;16.426;2022-10-16T07:47:43;22.08;;;14.57;;
55409;SDS011;41279;43.546;16.426;2022-10-16T07:50:08;20.98;;;13.98;;
55409;SDS011;41279;43.546;16.426;2022-10-16T07:52:34;19.30;;;14.13;;
55409;SDS011;41279;43.546;16.426;2022-10-16T07:54:59;20.45;;;13.55;;
55409;SDS011;41279;43.546;16.426;2022-10-16T07:57:25;21.70;;;13.65;;
55409;SDS011;41279;43.546;16.426;2022-10-16T07:59:50;18.05;;;13.25;;
55409;SDS011;41279;43.546;16.426;2022-10-16T08:02:22;18.25;;;13.20;;
55409;SDS011;41279;43.546;16.426;2022-10-16T08:04:47;19.77;;;13.02;;
55409;SDS011;41279;43.546;16.426;2022-10-16T08:07:19;18.65;;;13.02;;
55409;SDS011;41279;43.546;16.426;2022-10-16T08:09:51;18.85;;;12.50;;
55409;SDS011;41279;43.546;16.426;2022-10-16T08:12:17;16.75;;;12.38;;
55409;SDS011;41279;43.546;16.426;2022-10-16T08:14:42;17.45;;;11.55;;
55409;SDS011;41279;43.546;16.426;2022-10-16T08:17:08;17.90;;;12.23;;
55409;SDS011;41279;43.546;16.426;2022-10-16T08:19:33;18.48;;;12.23;;
55409;SDS011;41279;43.546;16.426;2022-10-16T08:21:59;17.90;;;13.00;;
55409;SDS011;41279;43.546;16.426;2022-10-16T08:24:25;17.95;;;13.02;;
55409;SDS011;41279;43.546;16.426;2022-10-16T08:26:53;16.15;;;11.43;;
55409;SDS011;41279;43.546;16.426;2022-10-16T08:29:19;16.73;;;12.13;;
55409;SDS011;41279;43.546;16.426;2022-10-16T08:31:44;16.90;;;12.52;;
55409;SDS011;41279;43.546;16.426;2022-10-16T08:34:09;16.25;;;12.13;;
55409;SDS011;41279;43.546;16.426;2022-10-16T08:36:35;17.00;;;11.50;;
55409;SDS011;41279;43.546;16.426;2022-10-16T08:39:00;18.90;;;12.20;;
55409;SDS011;41279;43.546;16.426;2022-10-16T08:41:36;16.40;;;11.88;;
55409;SDS011;41279;43.546;16.426;2022-10-16T08:44:43;19.50;;;12.23;;
55409;SDS011;41279;43.546;16.426;2022-10-16T08:47:47;17.25;;;11.43;;
55409;SDS011;41279;43.546;16.426;2022-10-16T08:50:21;15.77;;;10.95;;
55409;SDS011;41279;43.546;16.426;2022-10-16T08:52:49;16.23;;;11.50;;
55409;SDS011;41279;43.546;16.426;2022-10-16T08:55:32;16.73;;;11.77;;
55409;SDS011;41279;43.546;16.426;2022-10-16T08:58:08;17.90;;;12.05;;
55409;SDS011;41279;43.546;16.426;2022-10-16T09:00:38;16.02;;;11.38;;
55409;SDS011;41279;43.546;16.426;2022-10-16T09:06:02;16.60;;;11.45;;
55409;SDS011;41279;43.546;16.426;2022-10-16T09:21:50;18.95;;;13.02;;
55409;SDS011;41279;43.546;16.426;2022-10-16T09:24:17;18.63;;;12.90;;
55409;SDS011;41279;43.546;16.426;2022-10-16T09:26:44;20.85;;;13.15;;
55409;SDS011;41279;43.546;16.426;2022-10-16T09:29:14;17.95;;;12.68;;
55409;SDS011;41279;43.546;16.426;2022-10-16T09:31:41;17.60;;;12.38;;
55409;SDS011;41279;43.546;16.426;2022-10-16T09:34:11;20.17;;;14.25;;
55409;SDS011;41279;43.546;16.426;2022-10-16T09:36:53;18.42;;;13.02;;
55409;SDS011;41279;43.546;16.426;2022-10-16T09:39:19;22.13;;;14.13;;
55409;SDS011;41279;43.546;16.426;2022-10-16T09:41:44;21.13;;;13.55;;
55409;SDS011;41279;43.546;16.426;2022-10-16T09:44:22;20.70;;;14.00;;
55409;SDS011;41279;43.546;16.426;2022-10-16T09:47:13;21.13;;;13.90;;
55409;SDS011;41279;43.546;16.426;2022-10-16T09:49:58;21.98;;;13.07;;
55409;SDS011;41279;43.546;16.426;2022-10-16T09:52:27;23.92;;;16.40;;
55409;SDS011;41279;43.546;16.426;2022-10-16T09:54:55;20.92;;;14.00;;
55409;SDS011;41279;43.546;16.426;2022-10-16T09:57:22;20.15;;;13.95;;
55409;SDS011;41279;43.546;16.426;2022-10-16T09:59:49;20.15;;;13.93;;
55409;SDS011;41279;43.546;16.426;2022-10-16T10:02:17;19.88;;;13.88;;
55409;SDS011;41279;43.546;16.426;2022-10-16T10:04:48;19.67;;;13.88;;
55409;SDS011;41279;43.546;16.426;2022-10-16T10:07:17;19.77;;;14.05;;
55409;SDS011;41279;43.546;16.426;2022-10-16T10:09:45;17.75;;;12.95;;
55409;SDS011;41279;43.546;16.426;2022-10-16T10:14:48;21.38;;;13.85;;
55409;SDS011;41279;43.546;16.426;2022-10-16T10:17:26;20.23;;;13.43;;
55409;SDS011;41279;43.546;16.426;2022-10-16T10:20:38;24.77;;;14.25;;
55409;SDS011;41279;43.546;16.426;2022-10-16T10:22:50;20.52;;;13.80;;
55409;SDS011;41279;43.546;16.426;2022-10-16T10:25:20;21.23;;;13.38;;
55409;SDS011;41279;43.546;16.426;2022-10-16T10:45:04;18.33;;;13.00;;
55409;SDS011;41279;43.546;16.426;2022-10-16T10:55:39;22.58;;;14.90;;
55409;SDS011;41279;43.546;16.426;2022-10-16T10:58:19;21.02;;;14.57;;
55409;SDS011;41279;43.546;16.426;2022-10-16T11:06:18;19.38;;;14.32;;
55409;SDS011;41279;43.546;16.426;2022-10-16T11:09:51;20.52;;;14.23;;
55409;SDS011;41279;43.546;16.426;2022-10-16T11:12:00;19.30;;;13.52;;
55409;SDS011;41279;43.546;16.426;2022-10-16T11:14:35;18.60;;;13.75;;
55409;SDS011;41279;43.546;16.426;2022-10-16T11:17:08;20.10;;;13.93;;
55409;SDS011;41279;43.546;16.426;2022-10-16T11:22:27;21.23;;;14.00;;
55409;SDS011;41279;43.546;16.426;2022-10-16T11:33:36;19.38;;;13.82;;
55409;SDS011;41279;43.546;16.426;2022-10-16T11:36:15;18.85;;;13.70;;
55409;SDS011;41279;43.546;16.426;2022-10-16T11:38:50;16.80;;;12.50;;
55409;SDS011;41279;43.546;16.426;2022-10-16T11:41:34;20.00;;;12.75;;
55409;SDS011;41279;43.546;16.426;2022-10-16T11:47:24;17.83;;;13.07;;
55409;SDS011;41279;43.546;16.426;2022-10-16T11:49:52;20.13;;;13.20;;
55409;SDS011;41279;43.546;16.426;2022-10-16T11:52:23;20.98;;;15.27;;
55409;SDS011;41279;43.546;16.426;2022-10-16T11:55:04;18.98;;;12.85;;
55409;SDS011;41279;43.546;16.426;2022-10-16T11:57:48;17.98;;;12.65;;
55409;SDS011;41279;43.546;16.426;2022-10-16T12:00:20;20.08;;;13.20;;
55409;SDS011;41279;43.546;16.426;2022-10-16T12:05:23;20.30;;;13.70;;
55409;SDS011;41279;43.546;16.426;2022-10-16T12:10:26;17.58;;;13.63;;
55409;SDS011;41279;43.546;16.426;2022-10-16T12:12:53;21.60;;;14.77;;
55409;SDS011;41279;43.546;16.426;2022-10-16T12:15:23;19.08;;;13.77;;
55409;SDS011;41279;43.546;16.426;2022-10-16T12:17:54;20.33;;;13.68;;
55409;SDS011;41279;43.546;16.426;2022-10-16T12:20:21;21.55;;;14.20;;
55409;SDS011;41279;43.546;16.426;2022-10-16T12:23:01;19.15;;;13.50;;
55409;SDS011;41279;43.546;16.426;2022-10-16T12:27:57;19.20;;;12.68;;
55409;SDS011;41279;43.546;16.426;2022-10-16T12:30:29;17.58;;;12.63;;
55409;SDS011;41279;43.546;16.426;2022-10-16T12:32:57;19.25;;;13.00;;
55409;SDS011;41279;43.546;16.426;2022-10-16T12:35:27;19.45;;;13.30;;
55409;SDS011;41279;43.546;16.426;2022-10-16T12:38:05;18.45;;;13.15;;
55409;SDS011;41279;43.546;16.426;2022-10-16T12:40:33;19.60;;;14.57;;
55409;SDS011;41279;43.546;16.426;2022-10-16T12:43:12;23.77;;;16.73;;
55409;SDS011;41279;43.546;16.426;2022-10-16T12:45:58;17.38;;;13.18;;
55409;SDS011;41279;43.546;16.426;2022-10-16T12:48:30;19.38;;;13.88;;
55409;SDS011;41279;43.546;16.426;2022-10-16T12:50:56;21.52;;;14.52;;
55409;SDS011;41279;43.546;16.426;2022-10-16T12:53:25;21.40;;;15.27;;
55409;SDS011;41279;43.546;16.426;2022-10-16T12:59:09;20.67;;;13.95;;
55409;SDS011;41279;43.546;16.426;2022-10-16T13:10:28;18.58;;;13.13;;
55409;SDS011;41279;43.546;16.426;2022-10-16T13:27:53;20.02;;;14.57;;
55409;SDS011;41279;43.546;16.426;2022-10-16T13:30:25;20.23;;;14.40;;
55409;SDS011;41279;43.546;16.426;2022-10-16T13:38:06;21.20;;;14.98;;
55409;SDS011;41279;43.546;16.426;2022-10-16T13:40:48;23.17;;;16.00;;
55409;SDS011;41279;43.546;16.426;2022-10-16T13:43:36;22.45;;;16.95;;
55409;SDS011;41279;43.546;16.426;2022-10-16T13:46:14;19.60;;;15.10;;
55409;SDS011;41279;43.546;16.426;2022-10-16T13:48:42;20.77;;;14.27;;
55409;SDS011;41279;43.546;16.426;2022-10-16T13:51:15;22.30;;;15.95;;
55409;SDS011;41279;43.546;16.426;2022-10-16T13:53:42;20.92;;;15.48;;
55409;SDS011;41279;43.546;16.426;2022-10-16T13:56:13;22.88;;;15.68;;
55409;SDS011;41279;43.546;16.426;2022-10-16T13:58:40;24.83;;;16.13;;
55409;SDS011;41279;43.546;16.426;2022-10-16T14:01:26;27.25;;;16.88;;
55409;SDS011;41279;43.546;16.426;2022-10-16T14:03:59;23.80;;;16.67;;
55409;SDS011;41279;43.546;16.426;2022-10-16T14:06:27;24.30;;;17.10;;
55409;SDS011;41279;43.546;16.426;2022-10-16T14:09:06;24.25;;;17.05;;
55409;SDS011;41279;43.546;16.426;2022-10-16T14:11:34;23.25;;;15.60;;
55409;SDS011;41279;43.546;16.426;2022-10-16T14:14:10;22.63;;;15.60;;
55409;SDS011;41279;43.546;16.426;2022-10-16T14:16:37;21.75;;;14.75;;
55409;SDS011;41279;43.546;16.426;2022-10-16T14:19:13;21.02;;;15.60;;
55409;SDS011;41279;43.546;16.426;2022-10-16T14:21:50;20.65;;;14.90;;
55409;SDS011;41279;43.546;16.426;2022-10-16T14:24:25;19.63;;;14.57;;
55409;SDS011;41279;43.546;16.426;2022-10-16T14:26:52;20.10;;;14.60;;
55409;SDS011;41279;43.546;16.426;2022-10-16T14:29:20;19.90;;;14.82;;
55409;SDS011;41279;43.546;16.426;2022-10-16T14:32:02;20.73;;;14.57;;
55409;SDS011;41279;43.546;16.426;2022-10-16T14:34:33;23.60;;;15.70;;
55409;SDS011;41279;43.546;16.426;2022-10-16T14:37:01;19.40;;;14.68;;
55409;SDS011;41279;43.546;16.426;2022-10-16T14:39:48;23.45;;;15.52;;
55409;SDS011;41279;43.546;16.426;2022-10-16T14:42:16;22.23;;;15.48;;
55409;SDS011;41279;43.546;16.426;2022-10-16T14:44:44;22.52;;;14.65;;
55409;SDS011;41279;43.546;16.426;2022-10-16T14:47:14;20.38;;;15.10;;
55409;SDS011;41279;43.546;16.426;2022-10-16T14:49:47;22.52;;;15.68;;
55409;SDS011;41279;43.546;16.426;2022-10-16T14:52:12;20.88;;;15.23;;
55409;SDS011;41279;43.546;16.426;2022-10-16T14:54:38;23.30;;;15.63;;
55409;SDS011;41279;43.546;16.426;2022-10-16T14:57:04;24.38;;;16.00;;
55409;SDS011;41279;43.546;16.426;2022-10-16T14:59:32;23.13;;;16.27;;
55409;SDS011;41279;43.546;16.426;2022-10-16T15:02:02;22.50;;;16.23;;
55409;SDS011;41279;43.546;16.426;2022-10-16T15:04:52;21.08;;;15.02;;
55409;SDS011;41279;43.546;16.426;2022-10-16T15:07:17;21.38;;;14.45;;
55409;SDS011;41279;43.546;16.426;2022-10-16T15:09:43;21.95;;;16.15;;
55409;SDS011;41279;43.546;16.426;2022-10-16T15:12:08;23.75;;;16.98;;
55409;SDS011;41279;43.546;16.426;2022-10-16T15:14:33;25.02;;;16.77;;
55409;SDS011;41279;43.546;16.426;2022-10-16T15:16:59;24.20;;;15.13;;
55409;SDS011;41279;43.546;16.426;2022-10-16T15:19:25;23.90;;;15.73;;
55409;SDS011;41279;43.546;16.426;2022-10-16T15:21:50;23.48;;;15.95;;
55409;SDS011;41279;43.546;16.426;2022-10-16T15:24:17;24.50;;;16.63;;
55409;SDS011;41279;43.546;16.426;2022-10-16T15:26:42;23.02;;;16.23;;
55409;SDS011;41279;43.546;16.426;2022-10-16T15:29:08;24.00;;;15.70;;
55409;SDS011;41279;43.546;16.426;2022-10-16T15:31:33;20.75;;;15.52;;
55409;SDS011;41279;43.546;16.426;2022-10-16T15:33:59;23.55;;;17.13;;
55409;SDS011;41279;43.546;16.426;2022-10-16T15:36:30;22.42;;;15.02;;
55409;SDS011;41279;43.546;16.426;2022-10-16T15:39:15;22.10;;;14.27;;
55409;SDS011;41279;43.546;16.426;2022-10-16T15:41:41;22.83;;;15.57;;
55409;SDS011;41279;43.546;16.426;2022-10-16T15:44:07;22.75;;;15.35;;
55409;SDS011;41279;43.546;16.426;2022-10-16T15:46:33;24.27;;;16.17;;
55409;SDS011;41279;43.546;16.426;2022-10-16T15:49:00;21.25;;;15.05;;
55409;SDS011;41279;43.546;16.426;2022-10-16T15:51:26;22.00;;;15.90;;
55409;SDS011;41279;43.546;16.426;2022-10-16T15:53:57;24.77;;;16.77;;
55409;SDS011;41279;43.546;16.426;2022-10-16T15:56:23;29.17;;;17.73;;
55409;SDS011;41279;43.546;16.426;2022-10-16T15:58:50;25.13;;;16.15;;
55409;SDS011;41279;43.546;16.426;2022-10-16T16:01:16;27.00;;;17.50;;
55409;SDS011;41279;43.546;16.426;2022-10-16T16:03:42;23.60;;;16.27;;
55409;SDS011;41279;43.546;16.426;2022-10-16T16:06:09;25.40;;;17.27;;
55409;SDS011;41279;43.546;16.426;2022-10-16T16:08:36;32.90;;;21.85;;
55409;SDS011;41279;43.546;16.426;2022-10-16T16:11:08;27.45;;;18.23;;
55409;SDS011;41279;43.546;16.426;2022-10-16T16:13:35;28.52;;;18.30;;
55409;SDS011;41279;43.546;16.426;2022-10-16T16:16:08;29.83;;;17.85;;
55409;SDS011;41279;43.546;16.426;2022-10-16T16:18:37;30.48;;;18.55;;